Have a Safe July 4th! 

Flight Track Log - Related Links

Times and Time Zones

All times are in EDT time to prevent confusion due to time zone crossing. See the DAL3643 flight status page for this flight to view local times or setup timezone preferences in your user account.

Time Position Orientation Groundspeed Altitude Reporting Facility
EDT Latitude Longitude Course Direction KTS MPH feet Rate Location/Type
Sat 11:28:33 AM 34.5686 -86.7456 110° East 200 230 3,800  Level Memphis Center
Sat 11:29:33 AM 34.5517 -86.6656 104° East 233 268 5,600 2,224 Climbing Memphis Center
Sat 11:30:00 AM 34.5327 -86.4308 107° East  Level FlightAware Approximate
Sat 11:30:29 AM 34.5300 -86.5753 106° East 253 291 8,100  Level Atlanta Center
Sat 11:31:00 AM 34.5110 -86.3440 107° East  Level FlightAware Approximate
Sat 11:31:29 AM 34.5047 -86.4736 107° East 304 350 10,400  Level Atlanta Center
Sat 11:32:00 AM 34.4874 -86.2580 110° East  Level FlightAware Approximate
Sat 11:32:29 AM 34.4758 -86.3594 107° East 323 372 11,500  Level Atlanta Center
Sat 11:33:00 AM 34.4619 -86.1729 110° East  Level FlightAware Approximate
Sat 11:33:29 AM 34.4467 -86.2328 106° East 359 413 12,800  Level Atlanta Center
Sat 11:34:29 AM 34.4133 -86.1111 108° East 373 429 14,600 1,050 Climbing Atlanta Center
Sat 11:35:29 AM 34.3778 -85.9844 109° East 386 444 14,900 50 Climbing Atlanta Center
Sat 11:36:29 AM 34.3192 -85.8647 121° Southeast 398 458 14,700 -550 Descending Atlanta Center
Sat 11:37:29 AM 34.2667 -85.7531 120° Southeast 393 452 13,800 -950 Descending Atlanta Center
Sat 11:38:29 AM 34.2178 -85.6467 119° Southeast 373 429 12,800 -900 Descending Atlanta Center
Sat 11:39:29 AM 34.1650 -85.5375 120° Southeast 368 423 12,000 -400 Descending Atlanta Center
Sat 11:40:29 AM 34.1161 -85.4339 120° Southeast 361 415 12,000  Level Atlanta Center
Sat 11:41:29 AM 34.0650 -85.3278 120° Southeast 366 421 12,000  Level Atlanta Center
Sat 11:42:29 AM 34.0161 -85.2267 120° Southeast 366 421 12,000  Level Atlanta Center
Sat 11:43:29 AM 33.9750 -85.1411 120° Southeast 341 392 12,000 -250 Level Atlanta Center
Sat 11:44:29 AM 33.9319 -85.0478 119° Southeast 323 372 11,500 -1,050 Descending Atlanta Center
Sat 11:45:29 AM 33.8911 -84.9597 119° Southeast 313 360 9,900 -1,250 Descending Atlanta Center
Sat 11:46:29 AM 33.8372 -84.8792 129° Southeast 313 360 9,000 -667 Descending Atlanta Center
Sat 11:47:08 AM 33.7833 -84.8167 136° Southeast 298 343 8,800 -1,143 Descending Atlanta TRACON
Sat 11:48:14 AM 33.7333 -84.7500 132° Southeast 281 323 7,000 -1,714 Descending Atlanta TRACON
Sat 11:49:14 AM 33.6833 -84.6833 132° Southeast 257 296 5,200 -1,800 Descending Atlanta TRACON

Login

Don't have an account? Register now (free) for customized features, flight alerts, and more!